Latest Weather Observations for Robe Airport

IDS60801

Issued at 11:02 am CDT Tuesday 23 December 2014 (issued every 30 minutes, with the page automatically refreshed every 10 minutes)

About weather observations | Map of weather stations | Latest weather observations for SA | Other Formats
Station Details ID: 026105 Name: ROBE AIRFIELD Lat: -37.18 Lon: 139.81 Height: 3.0 m
Data from the previous 72 hours. | See also: Recent months at Robe Airport
Date/Time
CDT
Temp
°C
App
Temp
°C
Dew
Point
Rel
Hum
%
Delta-T
°C
Wind Press
QNH
hPa
Press
MSL
hPa
Rain
since 9 am
mm
Dir
 
Spd
km/h
Gust
km/h
Spd
kts
Gust
kts
23/11:00am 16.1 14.5 15.1 94 0.6 SSW 17 26 9 14 1013.2 1013.2 0.2
23/10:30am 16.9 14.8 14.7 87 1.3 SSW 19 26 10 14 1012.9 1012.9 0.0
23/10:00am 16.9 14.6 14.0 83 1.6 SSW 19 26 10 14 1012.5 1012.5 0.0
23/09:30am 17.2 14.7 13.5 79 2.1 SSW 19 28 10 15 1012.2 1012.2 0.0
23/09:00am 18.2 16.3 14.1 77 2.4 SSW 17 28 9 15 1011.8 1011.8 1.4
23/08:30am 17.3 14.8 13.6 79 2.1 SSW 19 26 10 14 1011.6 1011.6 1.4
23/08:00am 16.6 14.7 14.1 85 1.4 SSW 17 24 9 13 1011.1 1011.1 1.4
23/07:30am 16.2 14.8 14.4 89 1.0 SSW 15 22 8 12 1010.8 1010.8 1.4
23/07:00am 15.8 14.4 14.5 92 0.7 SSW 15 22 8 12 1010.8 1010.8 1.4
23/06:30am 15.9 15.5 15.1 95 0.5 SSW 11 19 6 10 1010.4 1010.4 1.4
23/06:00am 15.8 15.0 15.0 95 0.5 SW 13 20 7 11 1010.0 1010.0 1.4
23/05:30am 15.6 15.1 14.8 95 0.5 SSW 11 17 6 9 1009.8 1009.8 1.4
23/05:00am 15.9 15.5 15.3 96 0.3 SSW 11 15 6 8 1009.4 1009.4 1.4
23/04:30am 15.9 14.8 15.3 96 0.3 SW 15 20 8 11 1009.3 1009.3 1.4
23/04:00am 16.0 16.1 15.5 97 0.3 SW 9 13 5 7 1008.9 1008.9 1.4
23/03:30am 16.1 16.6 15.6 97 0.3 SW 7 13 4 7 1008.8 1008.8 1.4
23/03:00am 16.2 16.8 15.7 97 0.3 SW 7 15 4 8 1008.6 1008.6 1.4
23/02:30am 16.2 16.9 15.7 97 0.3 WSW 6 9 3 5 1008.6 1008.6 1.4
23/02:00am 16.3 17.1 15.8 97 0.3 W 6 9 3 5 1008.9 1008.9 1.4
23/01:30am 16.3 16.9 15.8 97 0.3 WSW 7 15 4 8 1008.8 1008.8 1.4
23/01:00am 16.3 17.1 15.8 97 0.3 W 6 7 3 4 1008.8 1008.8 1.4
23/12:30am 16.1 16.8 15.6 97 0.3 WSW 6 11 3 6 1008.5 1008.5 1.4
23/12:00am 16.1 16.6 15.5 96 0.3 W 7 9 4 5 1008.6 1008.6 1.4
 
Date/Time
CDT
Temp
°C
App
Temp
°C
Dew
Point
Rel
Hum
%
Delta-T
°C
Wind Press
QNH
hPa
Press
MSL
hPa
Rain
since 9 am
mm
Dir
 
Spd
km/h
Gust
km/h
Spd
kts
Gust
kts
22/11:30pm 16.4 17.2 15.9 97 0.3 NW 6 7 3 4 1008.7 1008.7 1.4
22/11:00pm 16.4 17.2 15.8 96 0.4 NW 6 6 3 3 1008.5 1008.5 1.4
22/10:30pm 16.5 17.3 15.9 96 0.4 WNW 6 7 3 4 1008.8 1008.8 1.4
22/10:00pm 16.7 17.6 16.1 96 0.4 W 6 7 3 4 1008.9 1008.9 1.4
22/09:30pm 16.8 18.8 16.0 95 0.5 CALM 0 0 0 0 1008.9 1008.9 1.4
22/09:00pm 17.0 17.9 16.2 95 0.5 SW 6 9 3 5 1009.0 1009.0 1.2
22/08:30pm 17.8 19.3 16.7 93 0.7 W 4 7 2 4 1008.8 1008.8 1.0
22/08:00pm 18.0 20.3 16.7 92 0.8 CALM 0 0 0 0 1008.7 1008.7 0.8
22/07:30pm 18.2 20.5 16.7 91 0.9 CALM 0 0 0 0 1008.6 1008.6 0.8
22/07:00pm 18.2 19.6 16.4 89 1.1 SSW 4 4 2 2 1007.8 1007.8 0.6
22/06:30pm 18.4 19.1 16.0 86 1.4 S 7 9 4 5 1007.2 1007.2 0.4
22/06:00pm 18.2 19.1 16.0 87 1.3 SSE 6 9 3 5 1007.2 1007.2 0.4
22/05:30pm 18.1 18.2 15.5 85 1.5 SSW 9 13 5 7 1007.4 1007.4 0.4
22/05:00pm 18.5 18.2 15.4 82 1.8 SSW 11 15 6 8 1007.7 1007.7 0.4
22/04:30pm 19.7 19.4 15.4 76 2.5 SSW 11 17 6 9 1007.9 1007.9 0.4
22/04:00pm 21.7 22.0 15.1 66 3.9 SW 7 9 4 5 1007.8 1007.8 0.4
22/03:30pm 20.6 19.8 15.2 71 3.2 SSW 13 20 7 11 1007.9 1007.9 0.4
22/03:00pm 21.2 20.5 14.4 65 4.0 SW 11 15 6 8 1008.4 1008.4 0.4
22/02:30pm 21.6 22.0 15.2 67 3.8 WSW 7 9 4 5 1008.4 1008.4 0.4
22/02:00pm 21.5 21.9 15.3 68 3.7 S 7 11 4 6 1008.2 1008.2 0.4
22/01:30pm 21.4 20.1 15.7 70 3.4 SSW 17 22 9 12 1007.6 1007.6 0.4
22/01:00pm 22.1 21.6 15.0 64 4.2 S 11 15 6 8 1008.4 1008.4 0.4
22/12:30pm 21.5 20.7 16.0 71 3.3 SE 15 20 8 11 1008.3 1008.3 0.4
22/12:00pm 18.7 15.7 14.8 78 2.3 SSE 24 33 13 18 1008.0 1008.0 0.4
22/11:30am 17.4 15.4 15.0 86 1.4 SSE 19 26 10 14 1008.3 1008.3 0.4
22/11:00am 16.9 16.1 15.2 90 1.0 SE 13 20 7 11 1008.8 1008.8 0.4
22/10:30am 16.5 14.6 15.2 92 0.8 SSE 19 26 10 14 1008.2 1008.2 0.4
22/10:00am 16.4 15.9 14.8 90 0.9 SSW 11 22 6 12 1009.7 1009.7 0.2
22/09:30am 17.1 17.0 13.8 81 1.9 WSW 7 11 4 6 1009.8 1009.8 0.0
22/09:00am 18.2 17.5 13.1 72 2.9 W 9 22 5 12 1010.1 1010.1 0.0
22/08:30am 17.5 16.7 12.8 74 2.6 E 9 17 5 9 1008.8 1008.8 0.0
22/08:00am 17.1 16.3 12.8 76 2.4 ESE 9 15 5 8 1008.5 1008.5 0.0
22/07:30am 16.6 14.9 12.6 77 2.2 SE 13 17 7 9 1008.2 1008.2 0.0
22/07:00am 16.8 15.4 12.1 74 2.6 SE 11 19 6 10 1008.5 1008.5 0.0
22/06:30am 16.6 14.4 12.0 74 2.5 ESE 15 22 8 12 1008.0 1008.0 0.0
22/06:00am 16.5 14.2 11.6 73 2.7 SE 15 22 8 12 1008.0 1008.0 0.0
22/05:30am 16.7 14.4 11.6 72 2.8 ESE 15 24 8 13 1008.1 1008.1 0.0
22/05:00am 16.5 13.8 11.6 73 2.7 ESE 17 24 9 13 1008.2 1008.2 0.0
22/04:30am 16.0 13.5 12.2 78 2.1 SE 17 24 9 13 1008.3 1008.3 0.0
22/04:00am 16.1 14.0 12.3 78 2.1 SE 15 24 8 13 1009.4 1009.4 0.0
22/03:30am 16.1 14.4 12.3 78 2.1 ESE 13 17 7 9 1010.2 1010.2 0.0
22/03:00am 16.3 14.9 12.1 76 2.3 SE 11 19 6 10 1010.9 1010.9 0.0
22/02:30am 16.3 13.4 12.3 77 2.2 SE 19 28 10 15 1010.4 1010.4 0.0
22/02:00am 16.3 15.7 12.3 77 2.2 WSW 7 20 4 11 1011.7 1011.7 0.0
22/01:55am 16.3 14.6 12.3 77 2.2 ESE 13 28 7 15 1012.0 1012.0 0.0
22/01:30am 16.4 11.0 12.2 76 2.3 SE 32 44 17 24 1010.0 1010.0 0.0
22/01:00am 16.1 13.6 12.3 78 2.1 SE 17 28 9 15 1011.5 1011.5 0.0
22/12:30am 16.1 12.3 12.5 79 2.0 ESE 24 37 13 20 1011.1 1011.1 0.0
22/12:00am 16.0 11.5 12.6 80 1.9 ESE 28 41 15 22 1011.3 1011.3 0.0
 
Date/Time
CDT
Temp
°C
App
Temp
°C
Dew
Point
Rel
Hum
%
Delta-T
°C
Wind Press
QNH
hPa
Press
MSL
hPa
Rain
since 9 am
mm
Dir
 
Spd
km/h
Gust
km/h
Spd
kts
Gust
kts
21/11:30pm 16.2 10.9 12.6 79 2.0 SE 32 46 17 25 1011.2 1011.2 0.0
21/11:00pm 16.4 12.7 12.8 79 2.0 SE 24 32 13 17 1012.3 1012.3 0.0
21/10:30pm 16.5 12.6 13.2 81 1.8 SE 26 41 14 22 1012.5 1012.5 0.0
21/10:00pm 16.9 12.0 13.6 81 1.9 SSE 32 43 17 23 1013.0 1013.0 0.0
21/09:30pm 16.4 12.5 13.3 82 1.7 SSE 26 35 14 19 1012.9 1012.9 0.0
21/09:00pm 16.3 11.2 13.2 82 1.7 SSE 32 44 17 24 1012.6 1012.6 0.0
21/08:30pm 16.4 11.4 13.5 83 1.6 SSE 32 44 17 24 1012.5 1012.5 0.0
21/08:00pm 16.8 11.7 13.7 82 1.8 SSE 33 46 18 25 1012.6 1012.6 0.0
21/07:30pm 17.2 13.1 13.7 80 2.0 SSE 28 39 15 21 1012.2 1012.2 0.0
21/07:00pm 17.9 13.7 13.4 75 2.5 SSE 28 37 15 20 1012.0 1012.0 0.0
21/06:30pm 18.7 15.0 13.8 73 2.8 SSE 26 35 14 19 1011.9 1011.9 0.0
21/06:00pm 19.4 15.7 13.8 70 3.2 S 26 35 14 19 1011.8 1011.8 0.0
21/05:30pm 21.7 18.0 12.8 57 5.1 S 24 33 13 18 1011.7 1011.7 0.0
21/05:00pm 22.2 18.1 12.7 55 5.4 S 26 35 14 19 1011.9 1011.9 0.0
21/04:30pm 22.8 18.8 13.0 54 5.6 SSE 26 35 14 19 1012.1 1012.1 0.0
21/04:00pm 23.4 19.4 13.0 52 6.0 S 26 35 14 19 1012.2 1012.2 0.0
21/03:30pm 22.9 19.3 14.2 58 5.1 S 26 33 14 18 1012.5 1012.5 0.0
21/03:00pm 21.6 18.3 14.0 62 4.4 S 24 35 13 19 1012.6 1012.6 0.0
21/02:30pm 22.6 19.2 13.7 57 5.2 SSE 24 32 13 17 1012.6 1012.6 0.0
21/02:00pm 21.3 17.2 13.7 62 4.4 SSE 28 37 15 20 1013.3 1013.3 0.0
21/01:30pm 22.3 18.8 14.4 61 4.6 S 26 35 14 19 1013.6 1013.6 0.0
21/01:00pm 24.5 22.4 15.1 55 5.6 SSE 20 30 11 16 1013.6 1013.6 0.0
21/12:30pm 23.6 20.8 14.3 56 5.5 SE 22 30 12 16 1013.7 1013.7 0.0
21/12:00pm 23.7 21.0 13.0 51 6.2 SSE 19 28 10 15 1014.0 1014.0 0.0
21/11:30am 22.8 19.9 13.0 54 5.6 SSW 20 28 11 15 1013.9 1013.9 0.0
21/11:00am 22.0 19.1 12.8 56 5.2 S 20 28 11 15 1014.1 1014.1 0.0
21/10:30am 21.2 18.2 12.1 56 5.1 S 19 24 10 13 1014.0 1014.0 0.0
21/10:00am 21.2 19.0 13.4 61 4.5 SSW 17 24 9 13 1013.9 1013.9 0.0
21/09:30am 21.1 19.4 12.5 58 4.9 SSW 13 20 7 11 1013.6 1013.6 0.0
21/09:00am 20.2 19.6 11.7 58 4.7 S 6 9 3 5 1013.3 1013.3 0.0
21/08:30am 18.6 17.9 11.4 63 3.9 SSE 6 11 3 6 1013.1 1013.1 0.0
21/08:00am 17.1 16.2 11.4 69 3.1 SE 7 9 4 5 1012.9 1012.9 0.0
21/07:30am 15.0 14.1 11.2 78 2.0 S 7 9 4 5 1012.8 1012.8 0.0
21/07:00am 13.3 12.5 11.0 86 1.2 S 6 7 3 4 1012.7 1012.7 0.0
21/06:30am 11.6 10.6 10.2 91 0.7 S 6 7 3 4 1012.6 1012.6 0.0
21/06:00am 10.8 9.6 9.4 91 0.7 SE 6 6 3 3 1012.2 1012.2 0.0
21/05:30am 10.8 9.5 9.2 90 0.8 SE 6 7 3 4 1012.0 1012.0 0.0
21/05:00am 11.1 9.9 9.4 89 0.9 SE 6 7 3 4 1012.2 1012.2 0.0
21/04:30am 11.7 10.4 9.9 89 0.9 SE 7 9 4 5 1012.1 1012.1 0.0
21/04:00am 11.5 10.3 9.6 88 1.0 SE 6 7 3 4 1012.2 1012.2 0.0
21/03:30am 11.4 10.0 9.7 89 0.9 SE 7 9 4 5 1012.5 1012.5 0.0
21/03:00am 11.5 10.2 9.2 86 1.2 SE 6 7 3 4 1013.2 1013.2 0.0
21/02:30am 12.3 11.0 9.9 85 1.2 SE 7 9 4 5 1013.7 1013.7 0.0
21/02:00am 12.3 10.2 9.7 84 1.3 E 11 15 6 8 1013.3 1013.3 0.0
21/01:30am 12.8 10.7 9.8 82 1.5 ESE 11 15 6 8 1013.3 1013.3 0.0
21/01:00am 13.1 10.7 9.9 81 1.6 ESE 13 17 7 9 1013.6 1013.6 0.0
21/12:30am 13.5 11.5 10.1 80 1.8 SE 11 19 6 10 1014.3 1014.3 0.0
21/12:00am 14.4 11.7 10.4 77 2.1 SE 15 19 8 10 1015.1 1015.1 0.0
 
Date/Time
CDT
Temp
°C
App
Temp
°C
Dew
Point
Rel
Hum
%
Delta-T
°C
Wind Press
QNH
hPa
Press
MSL
hPa
Rain
since 9 am
mm
Dir
 
Spd
km/h
Gust
km/h
Spd
kts
Gust
kts
20/11:30pm 14.8 12.2 10.8 77 2.1 SE 15 22 8 12 1015.3 1015.3 0.0
20/11:00pm 15.1 12.3 11.5 79 1.9 SE 17 24 9 13 1015.4 1015.4 0.0
20/10:30pm 15.3 13.1 12.1 81 1.7 SE 15 20 8 11 1015.9 1015.9 0.0
20/10:00pm 14.9 12.2 11.7 81 1.7 SSE 17 20 9 11 1016.0 1016.0 0.0
20/09:30pm 14.7 12.4 11.7 82 1.6 S 15 20 8 11 1016.3 1016.3 0.0
20/09:00pm 15.0 13.0 11.4 79 1.9 S 13 19 7 10 1016.4 1016.4 0.0
20/08:30pm 15.7 13.3 11.3 75 2.4 S 15 20 8 11 1016.5 1016.5 0.0
20/08:00pm 16.7 13.9 11.2 70 3.0 S 17 24 9 13 1016.6 1016.6 0.0
20/07:30pm 17.6 14.7 10.9 65 3.6 SSE 17 22 9 12 1016.4 1016.4 0.0
20/07:00pm 18.0 14.6 10.6 62 4.0 S 19 24 10 13 1016.5 1016.5 0.0
20/06:30pm 18.8 15.4 11.1 61 4.2 S 20 26 11 14 1016.3 1016.3 0.0
20/06:00pm 19.0 15.8 11.1 60 4.3 SSW 19 24 10 13 1016.4 1016.4 0.0
20/05:30pm 19.8 17.4 11.3 58 4.7 SSW 15 20 8 11 1016.4 1016.4 0.0
20/05:00pm 19.4 16.9 11.2 59 4.5 S 15 20 8 11 1016.8 1016.8 0.0
20/04:30pm 19.9 17.5 11.4 58 4.7 SSW 15 20 8 11 1017.0 1017.0 0.0
20/04:00pm 19.8 17.3 11.0 57 4.8 SSW 15 24 8 13 1017.2 1017.2 0.0
20/03:30pm 20.1 17.6 11.1 56 4.9 SSW 15 26 8 14 1017.5 1017.5 0.0
20/03:00pm 20.0 17.8 10.7 55 5.0 SSW 13 24 7 13 1017.9 1017.9 0.0
20/02:30pm 20.1 17.6 11.1 56 4.9 SSW 15 22 8 12 1018.6 1018.6 0.0
20/02:00pm 19.6 17.3 10.6 56 4.9 SSW 13 20 7 11 1019.0 1019.0 0.0
20/01:30pm 19.6 17.3 10.6 56 4.9 SSW 13 24 7 13 1019.3 1019.3 0.0
20/01:00pm 19.6 17.4 10.9 57 4.7 SSW 13 24 7 13 1019.6 1019.6 0.0
20/12:30pm 19.6 17.5 11.1 58 4.6 SW 13 22 7 12 1019.6 1019.6 0.0
20/12:00pm 20.1 18.0 11.3 57 4.8 SW 13 20 7 11 1020.0 1020.0 0.0
20/11:30am 19.3 17.0 10.6 57 4.7 SW 13 22 7 12 1020.2 1020.2 0.0

Other Formats:

Comma delimited format used in spreadsheet applications
http://www.bom.gov.au/fwo/IDS60801/IDS60801.95816.axf

JavaScript Object Notation format (JSON) in row-major order
http://www.bom.gov.au/fwo/IDS60801/IDS60801.95816.json